createdAt,value
2022-11-15T00:02:24.672Z,4.85
2022-11-15T00:08:00.082Z,5.60
2022-11-15T00:13:20.582Z,6.25
2022-11-15T00:18:44.082Z,6.55
2022-11-15T00:24:06.754Z,6.70
2022-11-15T00:29:26.852Z,5.85
2022-11-15T00:34:47.306Z,5.20
2022-11-15T00:40:08.734Z,6.55
2022-11-15T00:45:29.040Z,6.90
2022-11-15T00:50:50.267Z,5.40
2022-11-15T00:56:10.812Z,4.95
2022-11-15T01:01:31.191Z,6.80
2022-11-15T01:06:52.037Z,4.70
2022-11-15T01:12:12.417Z,4.65
2022-11-15T01:17:33.284Z,4.30
2022-11-15T01:22:53.663Z,5.20
2022-11-15T01:28:14.573Z,5.45
2022-11-15T01:33:38.067Z,4.80
2022-11-15T01:38:59.566Z,4.95
2022-11-15T01:44:42.099Z,6.45
2022-11-15T01:56:28.562Z,4.10
2022-11-15T02:01:48.798Z,4.85
2022-11-15T02:07:12.466Z,4.90
2022-11-15T02:12:32.724Z,4.70
2022-11-15T02:17:55.817Z,4.25
2022-11-15T02:23:24.853Z,4.53
2022-11-15T02:29:02.668Z,4.50
2022-11-15T02:34:54.573Z,4.95
2022-11-15T02:40:20.570Z,4.10
2022-11-15T02:45:49.332Z,4.47
2022-11-15T02:51:10.754Z,5.10
2022-11-15T02:56:31.749Z,4.10
2022-11-15T03:02:07.947Z,6.07
2022-11-15T03:07:44.186Z,5.40
2022-11-15T03:13:25.507Z,4.93
2022-11-15T03:18:53.937Z,4.05
2022-11-15T03:24:23.300Z,3.90
2022-11-15T03:29:51.248Z,4.70
2022-11-15T03:35:24.177Z,4.80
2022-11-15T03:40:54.438Z,4.40
2022-11-15T03:46:24.729Z,4.90
2022-11-15T03:51:44.949Z,5.70
2022-11-15T03:57:05.321Z,5.25
2022-11-15T04:02:25.825Z,5.50
2022-11-15T04:07:46.174Z,5.33
2022-11-15T04:13:06.606Z,5.37
2022-11-15T04:18:27.409Z,5.27
2022-11-15T04:24:06.187Z,5.65
2022-11-15T04:29:35.833Z,5.20
2022-11-15T04:34:56.037Z,5.30
2022-11-15T04:40:16.872Z,5.75
2022-11-15T04:45:37.393Z,5.00
2022-11-15T04:50:57.635Z,5.00
2022-11-15T04:56:18.180Z,4.15
2022-11-15T05:01:44.601Z,5.70
2022-11-15T05:07:05.153Z,5.50
2022-11-15T05:12:25.708Z,5.00
2022-11-15T05:17:46.098Z,5.55
2022-11-15T05:23:06.832Z,6.40
2022-11-15T05:28:27.513Z,5.10
2022-11-15T05:33:49.619Z,4.53
2022-11-15T05:39:10.450Z,4.80
2022-11-15T05:44:32.492Z,3.90
2022-11-15T05:49:54.596Z,4.30
2022-11-15T05:55:15.639Z,3.50
2022-11-15T06:00:35.922Z,3.05
2022-11-15T06:05:56.976Z,4.20
2022-11-15T06:11:17.569Z,4.67
2022-11-15T06:16:38.443Z,5.05
2022-11-15T06:22:01.878Z,4.35
2022-11-15T06:27:21.898Z,3.77
2022-11-15T06:32:42.660Z,4.27
2022-11-15T06:38:05.803Z,4.10
2022-11-15T06:43:26.601Z,4.50
2022-11-15T06:48:47.035Z,2.80
2022-11-15T06:54:07.411Z,4.00
2022-11-15T06:59:27.970Z,2.80
2022-11-15T07:04:48.306Z,4.30
2022-11-15T07:10:09.840Z,4.95
2022-11-15T07:15:30.237Z,4.65
2022-11-15T07:20:50.727Z,3.95
2022-11-15T07:26:11.148Z,3.65
2022-11-15T07:31:31.493Z,3.95
2022-11-15T07:36:51.836Z,4.80
2022-11-15T07:42:31.211Z,5.40
2022-11-15T07:47:51.775Z,6.30
2022-11-15T07:53:11.887Z,6.70
2022-11-15T07:58:32.265Z,6.05
2022-11-15T08:03:52.830Z,6.20
2022-11-15T08:09:13.241Z,4.80
2022-11-15T08:14:33.782Z,5.30
2022-11-15T08:19:54.069Z,4.10
2022-11-15T08:25:14.900Z,4.90
2022-11-15T08:30:38.990Z,4.27
2022-11-15T08:41:31.053Z,4.40
2022-11-15T08:46:51.481Z,4.73
2022-11-15T08:52:12.030Z,6.20
2022-11-15T08:57:32.582Z,5.53
2022-11-15T09:02:52.825Z,5.03
2022-11-15T09:08:45.563Z,5.13
2022-11-15T09:13:54.359Z,3.77
2022-11-15T09:19:15.676Z,3.83
2022-11-15T09:24:36.749Z,2.87
2022-11-15T09:29:56.834Z,4.00
2022-11-15T09:35:17.881Z,4.10
2022-11-15T09:40:39.034Z,3.97
2022-11-15T09:46:36.824Z,3.97
2022-11-15T09:51:48.045Z,4.03
2022-11-15T09:56:52.183Z,4.57
2022-11-15T10:02:06.014Z,4.28
2022-11-15T10:07:22.034Z,4.33
2022-11-15T10:12:26.030Z,5.93
2022-11-15T10:17:37.008Z,7.00
2022-11-15T10:23:02.814Z,6.00
2022-11-15T10:28:30.739Z,6.32
2022-11-15T10:33:36.626Z,5.37
2022-11-15T10:38:52.034Z,5.22
2022-11-15T10:44:09.568Z,5.00
2022-11-15T10:49:20.534Z,5.50
2022-11-15T10:54:26.427Z,5.15
2022-11-15T10:59:36.225Z,5.55
2022-11-15T11:04:51.841Z,5.60
2022-11-15T11:10:49.812Z,4.60
2022-11-15T11:15:48.301Z,5.37
2022-11-15T11:21:05.020Z,5.50
2022-11-15T11:26:10.457Z,5.15
2022-11-15T11:31:29.026Z,5.30
2022-11-15T11:36:50.059Z,4.82
2022-11-15T11:42:05.977Z,4.97
2022-11-15T11:47:34.561Z,6.47
2022-11-15T11:52:50.511Z,4.20
2022-11-15T11:58:00.343Z,6.60
2022-11-15T12:03:18.841Z,6.78
2022-11-15T12:08:57.356Z,4.12
2022-11-15T12:14:03.975Z,3.53
2022-11-15T12:19:06.303Z,4.07
2022-11-15T12:24:28.206Z,3.55
2022-11-15T12:29:49.773Z,3.50
2022-11-15T12:34:53.179Z,3.30
2022-11-15T12:40:11.209Z,2.80
2022-11-15T12:45:32.521Z,3.00
2022-11-15T12:50:54.452Z,2.62
2022-11-15T12:56:05.969Z,4.00
2022-11-15T13:01:09.124Z,3.65
2022-11-15T13:06:38.504Z,2.53
2022-11-15T13:11:49.859Z,2.37
2022-11-15T13:16:59.895Z,2.95
2022-11-15T13:22:24.144Z,2.08
2022-11-15T13:27:26.400Z,2.65
2022-11-15T13:32:28.551Z,2.97
2022-11-15T13:37:33.276Z,2.17
2022-11-15T13:42:35.770Z,2.33
2022-11-15T13:47:37.877Z,2.55
2022-11-15T13:52:44.113Z,2.42
2022-11-15T13:58:01.152Z,3.08
2022-11-15T14:03:25.139Z,2.70
2022-11-15T14:08:27.184Z,2.65
2022-11-15T14:13:31.638Z,2.47
2022-11-15T14:19:00.025Z,2.10
2022-11-15T14:24:18.830Z,1.83
2022-11-15T14:29:29.158Z,1.70
2022-11-15T14:34:33.172Z,2.67
2022-11-15T14:39:35.237Z,2.20
2022-11-15T14:44:37.267Z,3.37
2022-11-15T14:49:39.464Z,2.50
2022-11-15T14:54:41.959Z,2.25
2022-11-15T14:59:44.040Z,2.15
2022-11-15T15:04:46.177Z,2.60
2022-11-15T15:09:48.276Z,2.20
2022-11-15T15:14:51.480Z,1.90
2022-11-15T15:19:53.576Z,2.40
2022-11-15T15:24:55.620Z,2.58
2022-11-15T15:29:57.654Z,3.00
2022-11-15T15:35:00.244Z,2.85
2022-11-15T15:40:02.383Z,3.15
2022-11-15T15:45:05.173Z,2.95
2022-11-15T15:50:34.331Z,3.15
2022-11-15T15:55:36.427Z,2.55
2022-11-15T16:00:38.860Z,2.87
2022-11-15T16:05:41.197Z,3.10
2022-11-15T16:10:43.172Z,3.03
2022-11-15T16:15:47.154Z,2.73
2022-11-15T16:20:52.846Z,2.60
2022-11-15T16:25:56.663Z,2.65
2022-11-15T16:31:11.513Z,1.95
2022-11-15T16:36:29.488Z,1.98
2022-11-15T16:41:33.009Z,2.12
2022-11-15T16:46:35.276Z,2.55
2022-11-15T16:51:37.917Z,2.55
2022-11-15T16:56:40.393Z,3.15
2022-11-15T17:01:50.567Z,3.00
2022-11-15T17:06:53.042Z,2.40
2022-11-15T17:11:55.177Z,2.67
2022-11-15T17:16:57.267Z,3.47
2022-11-15T17:21:59.440Z,2.60
2022-11-15T17:27:01.891Z,2.47
2022-11-15T17:32:04.071Z,2.22
2022-11-15T17:37:06.075Z,2.20
2022-11-15T17:42:08.268Z,2.55
2022-11-15T17:47:10.790Z,2.50
2022-11-15T17:52:12.901Z,2.33
2022-11-15T17:57:14.970Z,2.05
2022-11-15T18:02:17.098Z,2.75
2022-11-15T18:07:19.254Z,2.22
2022-11-15T18:12:22.392Z,3.67
2022-11-15T18:17:25.718Z,5.27
2022-11-15T18:22:27.779Z,9.55
2022-11-15T18:27:30.437Z,10.32
2022-11-15T18:32:35.071Z,10.00
2022-11-15T18:37:37.153Z,8.03
2022-11-15T18:42:40.464Z,8.27
2022-11-15T18:47:42.913Z,8.68
2022-11-15T18:52:44.963Z,7.82
2022-11-15T18:57:47.066Z,8.90
2022-11-15T19:02:49.180Z,7.43
2022-11-15T19:07:51.271Z,6.45
2022-11-15T19:12:55.025Z,6.53
2022-11-15T19:17:57.822Z,5.83
2022-11-15T19:22:59.862Z,4.12
2022-11-15T19:28:01.904Z,3.65
2022-11-15T19:33:04.059Z,5.40
2022-11-15T19:38:06.137Z,4.03
2022-11-15T19:43:08.290Z,4.62
2022-11-15T19:48:10.363Z,4.72
2022-11-15T19:53:12.777Z,5.25
2022-11-15T19:58:14.856Z,5.57
2022-11-15T20:03:17.513Z,5.12
2022-11-15T20:13:21.946Z,4.70
2022-11-15T20:18:25.480Z,5.07
2022-11-15T20:23:27.892Z,4.77
2022-11-15T20:28:30.020Z,4.32
2022-11-15T20:33:32.445Z,5.72
2022-11-15T20:38:34.827Z,5.15
2022-11-15T20:48:39.703Z,6.37
2022-11-15T20:53:43.202Z,4.78
2022-11-15T20:58:46.016Z,6.77
2022-11-15T21:03:48.137Z,10.30
2022-11-15T21:09:24.032Z,8.73
2022-11-15T21:14:26.112Z,10.27
2022-11-15T21:19:34.078Z,8.00
2022-11-15T21:24:38.994Z,6.90
2022-11-15T21:29:45.461Z,5.95
2022-11-15T21:34:47.577Z,5.90
2022-11-15T21:39:49.775Z,6.50
2022-11-15T21:44:51.853Z,9.05
2022-11-15T21:49:53.907Z,7.12
2022-11-15T21:54:56.792Z,6.03
2022-11-15T22:00:17.296Z,6.03
2022-11-15T22:05:19.349Z,5.63
2022-11-15T22:10:21.536Z,6.85
2022-11-15T22:15:23.622Z,6.28
2022-11-15T22:20:44.050Z,7.28
2022-11-15T22:25:47.133Z,6.73
2022-11-15T22:30:51.849Z,6.45
2022-11-15T22:35:54.652Z,5.67
2022-11-15T22:46:00.649Z,6.30
2022-11-15T22:51:04.133Z,5.22
2022-11-15T22:56:06.825Z,4.70
2022-11-15T23:01:20.761Z,6.15
2022-11-15T23:06:23.011Z,5.33
2022-11-15T23:11:43.805Z,6.12
2022-11-15T23:16:46.092Z,5.67
2022-11-15T23:22:07.096Z,4.75
2022-11-15T23:27:09.510Z,4.63
2022-11-15T23:32:30.360Z,4.55
2022-11-15T23:37:32.647Z,4.33
2022-11-15T23:42:35.169Z,4.25
2022-11-15T23:47:37.800Z,5.07
2022-11-15T23:52:39.998Z,4.57
2022-11-15T23:57:42.271Z,4.45
